sensor_id;sensor_type;location;lat;lon;timestamp;temperature;humidity
67196;DHT22;54122;53.538;49.366;2022-11-23T06:21:19;1.80;99.90
67196;DHT22;54122;53.538;49.366;2022-11-23T06:23:47;1.80;99.90
67196;DHT22;54122;53.538;49.366;2022-11-23T06:26:14;1.90;99.90
67196;DHT22;54122;53.538;49.366;2022-11-23T06:29:13;1.90;99.90
67196;DHT22;54122;53.538;49.366;2022-11-23T06:31:40;1.90;99.90
67196;DHT22;54122;53.538;49.366;2022-11-23T06:34:06;2.00;99.90
67196;DHT22;54122;53.538;49.366;2022-11-23T06:36:33;2.00;99.90
67196;DHT22;54122;53.538;49.366;2022-11-23T06:38:59;2.00;99.90
67196;DHT22;54122;53.538;49.366;2022-11-23T06:41:26;2.00;99.90
67196;DHT22;54122;53.538;49.366;2022-11-23T06:43:52;2.00;99.90
67196;DHT22;54122;53.538;49.366;2022-11-23T06:46:19;2.00;99.90
67196;DHT22;54122;53.538;49.366;2022-11-23T06:48:46;2.10;99.90
67196;DHT22;54122;53.538;49.366;2022-11-23T06:51:13;2.10;99.90
67196;DHT22;54122;53.538;49.366;2022-11-23T06:53:40;2.10;99.90
67196;DHT22;54122;53.538;49.366;2022-11-23T06:56:07;2.10;99.90
67196;DHT22;54122;53.538;49.366;2022-11-23T06:58:35;2.20;99.90
67196;DHT22;54122;53.538;49.366;2022-11-23T07:01:03;2.10;99.90
67196;DHT22;54122;53.538;49.366;2022-11-23T07:03:30;2.20;99.90
67196;DHT22;54122;53.538;49.366;2022-11-23T07:05:57;2.20;99.90
67196;DHT22;54122;53.538;49.366;2022-11-23T07:08:24;2.20;99.90
67196;DHT22;54122;53.538;49.366;2022-11-23T07:10:50;2.20;99.90
67196;DHT22;54122;53.538;49.366;2022-11-23T07:13:16;2.30;99.90
67196;DHT22;54122;53.538;49.366;2022-11-23T07:15:43;2.30;99.90
67196;DHT22;54122;53.538;49.366;2022-11-23T07:18:11;2.40;99.90
67196;DHT22;54122;53.538;49.366;2022-11-23T07:20:37;2.40;99.90
67196;DHT22;54122;53.538;49.366;2022-11-23T07:23:06;2.40;99.90
67196;DHT22;54122;53.538;49.366;2022-11-23T07:25:40;2.50;99.90
67196;DHT22;54122;53.538;49.366;2022-11-23T07:28:07;2.50;99.90
67196;DHT22;54122;53.538;49.366;2022-11-23T07:30:35;2.50;99.90
67196;DHT22;54122;53.538;49.366;2022-11-23T07:33:06;2.60;99.90
67196;DHT22;54122;53.538;49.366;2022-11-23T07:35:34;2.60;99.90
67196;DHT22;54122;53.538;49.366;2022-11-23T07:38:01;2.60;99.90
67196;DHT22;54122;53.538;49.366;2022-11-23T07:40:28;2.60;99.90
67196;DHT22;54122;53.538;49.366;2022-11-23T07:43:01;2.70;99.90
67196;DHT22;54122;53.538;49.366;2022-11-23T07:45:28;2.70;99.90
67196;DHT22;54122;53.538;49.366;2022-11-23T07:48:07;2.70;99.90
67196;DHT22;54122;53.538;49.366;2022-11-23T07:50:35;2.70;99.90
67196;DHT22;54122;53.538;49.366;2022-11-23T07:53:03;2.80;99.90
67196;DHT22;54122;53.538;49.366;2022-11-23T07:55:29;2.80;99.90
67196;DHT22;54122;53.538;49.366;2022-11-23T07:57:57;2.90;99.90
67196;DHT22;54122;53.538;49.366;2022-11-23T08:00:24;2.90;99.90
67196;DHT22;54122;53.538;49.366;2022-11-23T08:02:51;2.90;99.90
67196;DHT22;54122;53.538;49.366;2022-11-23T08:05:18;3.00;99.90
67196;DHT22;54122;53.538;49.366;2022-11-23T08:07:44;3.10;99.80
67196;DHT22;54122;53.538;49.366;2022-11-23T08:10:12;3.10;99.70
67196;DHT22;54122;53.538;49.366;2022-11-23T08:12:38;3.10;99.50
67196;DHT22;54122;53.538;49.366;2022-11-23T08:15:05;3.10;99.40
67196;DHT22;54122;53.538;49.366;2022-11-23T08:17:32;3.10;99.30
67196;DHT22;54122;53.538;49.366;2022-11-23T08:19:59;3.10;99.10
67196;DHT22;54122;53.538;49.366;2022-11-23T08:22:27;3.00;99.10
67196;DHT22;54122;53.538;49.366;2022-11-23T08:24:54;3.00;99.30
67196;DHT22;54122;53.538;49.366;2022-11-23T08:27:21;3.00;99.40
67196;DHT22;54122;53.538;49.366;2022-11-23T08:29:47;3.00;99.60
67196;DHT22;54122;53.538;49.366;2022-11-23T08:32:13;3.00;99.70
67196;DHT22;54122;53.538;49.366;2022-11-23T08:34:41;3.00;99.70
67196;DHT22;54122;53.538;49.366;2022-11-23T08:37:09;3.00;99.80
67196;DHT22;54122;53.538;49.366;2022-11-23T08:39:36;3.00;99.70
67196;DHT22;54122;53.538;49.366;2022-11-23T08:42:03;3.00;99.90
67196;DHT22;54122;53.538;49.366;2022-11-23T08:44:29;3.10;99.90
67196;DHT22;54122;53.538;49.366;2022-11-23T08:46:56;3.10;99.90
67196;DHT22;54122;53.538;49.366;2022-11-23T08:49:22;3.20;99.90
67196;DHT22;54122;53.538;49.366;2022-11-23T08:51:49;3.30;99.90
67196;DHT22;54122;53.538;49.366;2022-11-23T08:54:15;3.30;99.90
67196;DHT22;54122;53.538;49.366;2022-11-23T08:56:41;3.40;99.80
67196;DHT22;54122;53.538;49.366;2022-11-23T08:59:08;3.40;99.80
67196;DHT22;54122;53.538;49.366;2022-11-23T09:01:34;3.50;99.80
67196;DHT22;54122;53.538;49.366;2022-11-23T09:04:01;3.50;99.50
67196;DHT22;54122;53.538;49.366;2022-11-23T09:06:32;3.50;99.60
67196;DHT22;54122;53.538;49.366;2022-11-23T09:08:59;3.50;99.80
67196;DHT22;54122;53.538;49.366;2022-11-23T09:11:25;3.50;99.90
67196;DHT22;54122;53.538;49.366;2022-11-23T09:13:52;3.50;99.70
67196;DHT22;54122;53.538;49.366;2022-11-23T09:16:20;3.50;99.90
67196;DHT22;54122;53.538;49.366;2022-11-23T09:18:47;3.50;99.90
67196;DHT22;54122;53.538;49.366;2022-11-23T09:21:14;3.60;99.80
67196;DHT22;54122;53.538;49.366;2022-11-23T09:23:41;3.60;99.70
67196;DHT22;54122;53.538;49.366;2022-11-23T09:26:07;3.60;99.70
67196;DHT22;54122;53.538;49.366;2022-11-23T09:28:36;3.70;99.90
67196;DHT22;54122;53.538;49.366;2022-11-23T09:31:03;3.70;99.80
67196;DHT22;54122;53.538;49.366;2022-11-23T09:33:30;3.70;99.80
67196;DHT22;54122;53.538;49.366;2022-11-23T09:36:02;3.80;99.70
67196;DHT22;54122;53.538;49.366;2022-11-23T09:38:30;3.80;99.60
67196;DHT22;54122;53.538;49.366;2022-11-23T09:41:27;3.80;99.50
67196;DHT22;54122;53.538;49.366;2022-11-23T09:44:39;3.80;99.50
67196;DHT22;54122;53.538;49.366;2022-11-23T09:52:35;3.70;99.40
67196;DHT22;54122;53.538;49.366;2022-11-23T09:57:42;3.70;99.70
67196;DHT22;54122;53.538;49.366;2022-11-23T10:00:20;3.70;99.70
67196;DHT22;54122;53.538;49.366;2022-11-23T10:02:47;3.70;99.60
67196;DHT22;54122;53.538;49.366;2022-11-23T10:05:22;3.70;99.50
67196;DHT22;54122;53.538;49.366;2022-11-23T10:10:49;3.70;99.60
67196;DHT22;54122;53.538;49.366;2022-11-23T10:14:00;3.60;99.60
67196;DHT22;54122;53.538;49.366;2022-11-23T10:25:21;3.70;99.90
67196;DHT22;54122;53.538;49.366;2022-11-23T10:27:58;3.70;99.80
67196;DHT22;54122;53.538;49.366;2022-11-23T10:30:25;3.70;99.80
67196;DHT22;54122;53.538;49.366;2022-11-23T10:36:09;3.70;99.70
67196;DHT22;54122;53.538;49.366;2022-11-23T10:38:36;3.70;99.80
67196;DHT22;54122;53.538;49.366;2022-11-23T10:41:08;3.70;99.80
67196;DHT22;54122;53.538;49.366;2022-11-23T10:43:43;3.70;99.70
67196;DHT22;54122;53.538;49.366;2022-11-23T10:49:17;3.60;99.80
67196;DHT22;54122;53.538;49.366;2022-11-23T10:54:32;3.70;99.90
67196;DHT22;54122;53.538;49.366;2022-11-23T10:57:01;3.60;99.90
67196;DHT22;54122;53.538;49.366;2022-11-23T10:59:37;3.60;99.90
67196;DHT22;54122;53.538;49.366;2022-11-23T11:02:13;3.60;99.90
67196;DHT22;54122;53.538;49.366;2022-11-23T11:04:40;3.60;99.90
67196;DHT22;54122;53.538;49.366;2022-11-23T11:07:28;3.60;99.90
67196;DHT22;54122;53.538;49.366;2022-11-23T11:09:59;3.60;99.90
67196;DHT22;54122;53.538;49.366;2022-11-23T11:12:27;3.60;99.90
67196;DHT22;54122;53.538;49.366;2022-11-23T11:17:36;3.60;99.90
67196;DHT22;54122;53.538;49.366;2022-11-23T11:22:55;3.60;99.90
67196;DHT22;54122;53.538;49.366;2022-11-23T11:25:36;3.60;99.90
67196;DHT22;54122;53.538;49.366;2022-11-23T11:28:22;3.60;99.90
67196;DHT22;54122;53.538;49.366;2022-11-23T11:31:41;3.60;99.90
67196;DHT22;54122;53.538;49.366;2022-11-23T11:40:09;3.70;99.90
67196;DHT22;54122;53.538;49.366;2022-11-23T11:42:51;3.70;99.90
67196;DHT22;54122;53.538;49.366;2022-11-23T11:45:41;3.80;99.90
67196;DHT22;54122;53.538;49.366;2022-11-23T11:48:19;3.80;99.90
67196;DHT22;54122;53.538;49.366;2022-11-23T11:50:55;3.80;99.90
67196;DHT22;54122;53.538;49.366;2022-11-23T11:53:36;3.80;99.90
67196;DHT22;54122;53.538;49.366;2022-11-23T11:56:15;3.80;99.90
67196;DHT22;54122;53.538;49.366;2022-11-23T11:58:54;3.80;99.90
67196;DHT22;54122;53.538;49.366;2022-11-23T12:01:34;3.80;99.90
67196;DHT22;54122;53.538;49.366;2022-11-23T12:04:07;3.80;99.90
67196;DHT22;54122;53.538;49.366;2022-11-23T12:06:45;3.80;99.90
67196;DHT22;54122;53.538;49.366;2022-11-23T12:09:20;3.80;99.90
67196;DHT22;54122;53.538;49.366;2022-11-23T12:11:48;3.80;99.90
67196;DHT22;54122;53.538;49.366;2022-11-23T12:14:15;3.80;99.90
67196;DHT22;54122;53.538;49.366;2022-11-23T12:19:25;3.80;99.90
67196;DHT22;54122;53.538;49.366;2022-11-23T12:30:19;3.70;99.90
67196;DHT22;54122;53.538;49.366;2022-11-23T12:38:29;3.80;99.90
67196;DHT22;54122;53.538;49.366;2022-11-23T12:55:00;3.70;99.90
67196;DHT22;54122;53.538;49.366;2022-11-23T13:00:16;3.60;99.90
67196;DHT22;54122;53.538;49.366;2022-11-23T13:05:51;3.60;99.90
67196;DHT22;54122;53.538;49.366;2022-11-23T13:08:49;3.60;99.90
67196;DHT22;54122;53.538;49.366;2022-11-23T13:19:29;3.70;99.90
67196;DHT22;54122;53.538;49.366;2022-11-23T13:22:01;3.70;99.90
67196;DHT22;54122;53.538;49.366;2022-11-23T13:24:59;3.70;99.90
67196;DHT22;54122;53.538;49.366;2022-11-23T13:29:53;3.60;99.90
67196;DHT22;54122;53.538;49.366;2022-11-23T13:43:00;3.50;99.90
67196;DHT22;54122;53.538;49.366;2022-11-23T13:45:32;3.50;99.90
67196;DHT22;54122;53.538;49.366;2022-11-23T13:48:21;3.50;99.90
67196;DHT22;54122;53.538;49.366;2022-11-23T13:55:51;3.50;99.90
67196;DHT22;54122;53.538;49.366;2022-11-23T14:06:24;3.50;99.90
67196;DHT22;54122;53.538;49.366;2022-11-23T14:09:16;3.50;99.90
67196;DHT22;54122;53.538;49.366;2022-11-23T14:26:30;3.60;99.90
67196;DHT22;54122;53.538;49.366;2022-11-23T14:29:20;3.60;99.90
67196;DHT22;54122;53.538;49.366;2022-11-23T14:43:17;3.60;99.90
67196;DHT22;54122;53.538;49.366;2022-11-23T14:45:46;3.60;99.90
67196;DHT22;54122;53.538;49.366;2022-11-23T14:48:30;3.60;99.90
67196;DHT22;54122;53.538;49.366;2022-11-23T14:50:59;3.60;99.90
67196;DHT22;54122;53.538;49.366;2022-11-23T14:53:34;3.70;99.90
67196;DHT22;54122;53.538;49.366;2022-11-23T14:56:00;3.70;99.90
67196;DHT22;54122;53.538;49.366;2022-11-23T14:58:30;3.70;99.90
67196;DHT22;54122;53.538;49.366;2022-11-23T15:01:01;3.80;99.90
67196;DHT22;54122;53.538;49.366;2022-11-23T15:03:30;3.80;99.90
67196;DHT22;54122;53.538;49.366;2022-11-23T15:06:13;3.70;99.90
67196;DHT22;54122;53.538;49.366;2022-11-23T15:08:46;3.70;99.90
67196;DHT22;54122;53.538;49.366;2022-11-23T15:11:19;3.70;99.90
67196;DHT22;54122;53.538;49.366;2022-11-23T15:13:50;3.70;99.90
67196;DHT22;54122;53.538;49.366;2022-11-23T15:16:22;3.70;99.90
67196;DHT22;54122;53.538;49.366;2022-11-23T15:18:49;3.80;99.90
67196;DHT22;54122;53.538;49.366;2022-11-23T15:21:21;3.80;99.90
67196;DHT22;54122;53.538;49.366;2022-11-23T15:23:55;3.80;99.90
67196;DHT22;54122;53.538;49.366;2022-11-23T15:26:23;3.80;99.90
67196;DHT22;54122;53.538;49.366;2022-11-23T15:28:51;3.80;99.90
67196;DHT22;54122;53.538;49.366;2022-11-23T15:31:26;3.80;99.90
67196;DHT22;54122;53.538;49.366;2022-11-23T15:33:58;3.80;99.90
67196;DHT22;54122;53.538;49.366;2022-11-23T15:36:36;3.80;99.90
67196;DHT22;54122;53.538;49.366;2022-11-23T15:39:06;3.80;99.90
67196;DHT22;54122;53.538;49.366;2022-11-23T15:41:38;3.80;99.90
67196;DHT22;54122;53.538;49.366;2022-11-23T15:44:34;3.70;99.90
67196;DHT22;54122;53.538;49.366;2022-11-23T15:47:04;3.80;99.90
67196;DHT22;54122;53.538;49.366;2022-11-23T15:49:41;3.80;99.90
67196;DHT22;54122;53.538;49.366;2022-11-23T15:52:12;3.70;99.90
67196;DHT22;54122;53.538;49.366;2022-11-23T15:54:39;3.70;99.90
67196;DHT22;54122;53.538;49.366;2022-11-23T15:57:14;3.70;99.90
67196;DHT22;54122;53.538;49.366;2022-11-23T15:59:54;3.80;99.90
67196;DHT22;54122;53.538;49.366;2022-11-23T16:02:24;3.80;99.90
67196;DHT22;54122;53.538;49.366;2022-11-23T16:05:11;3.80;99.90
67196;DHT22;54122;53.538;49.366;2022-11-23T16:07:55;3.80;99.90
67196;DHT22;54122;53.538;49.366;2022-11-23T16:10:32;3.80;99.90
67196;DHT22;54122;53.538;49.366;2022-11-23T16:13:05;3.70;99.90
67196;DHT22;54122;53.538;49.366;2022-11-23T16:21:02;3.70;99.90
67196;DHT22;54122;53.538;49.366;2022-11-23T16:23:52;3.70;99.90
67196;DHT22;54122;53.538;49.366;2022-11-23T16:26:31;3.70;99.90
67196;DHT22;54122;53.538;49.366;2022-11-23T16:28:58;3.80;99.90
67196;DHT22;54122;53.538;49.366;2022-11-23T16:31:40;3.70;99.90
67196;DHT22;54122;53.538;49.366;2022-11-23T16:34:15;3.70;99.90
67196;DHT22;54122;53.538;49.366;2022-11-23T16:36:46;3.70;99.90
67196;DHT22;54122;53.538;49.366;2022-11-23T16:39:16;3.70;99.90
67196;DHT22;54122;53.538;49.366;2022-11-23T16:41:42;3.70;99.90
67196;DHT22;54122;53.538;49.366;2022-11-23T16:44:09;3.70;99.90
67196;DHT22;54122;53.538;49.366;2022-11-23T16:46:36;3.80;99.90
67196;DHT22;54122;53.538;49.366;2022-11-23T16:49:16;3.70;99.90
67196;DHT22;54122;53.538;49.366;2022-11-23T16:51:45;3.70;99.90
67196;DHT22;54122;53.538;49.366;2022-11-23T16:54:17;3.70;99.90
67196;DHT22;54122;53.538;49.366;2022-11-23T16:56:44;3.60;99.90
67196;DHT22;54122;53.538;49.366;2022-11-23T16:59:18;3.70;99.90
67196;DHT22;54122;53.538;49.366;2022-11-23T17:01:50;3.70;99.90
67196;DHT22;54122;53.538;49.366;2022-11-23T17:04:17;3.70;99.90
67196;DHT22;54122;53.538;49.366;2022-11-23T17:06:47;3.70;99.90
67196;DHT22;54122;53.538;49.366;2022-11-23T17:09:14;3.70;99.90
67196;DHT22;54122;53.538;49.366;2022-11-23T17:11:44;3.70;99.90
67196;DHT22;54122;53.538;49.366;2022-11-23T17:14:14;3.70;99.90
67196;DHT22;54122;53.538;49.366;2022-11-23T17:16:42;3.80;99.90
67196;DHT22;54122;53.538;49.366;2022-11-23T17:19:31;3.80;99.90
67196;DHT22;54122;53.538;49.366;2022-11-23T17:21:58;3.80;99.90
67196;DHT22;54122;53.538;49.366;2022-11-23T17:24:24;3.80;99.90
67196;DHT22;54122;53.538;49.366;2022-11-23T17:26:51;3.80;99.90
67196;DHT22;54122;53.538;49.366;2022-11-23T17:29:19;3.70;99.90
67196;DHT22;54122;53.538;49.366;2022-11-23T17:31:47;3.70;99.90
67196;DHT22;54122;53.538;49.366;2022-11-23T17:34:14;3.70;99.90
67196;DHT22;54122;53.538;49.366;2022-11-23T17:36:43;3.70;99.90
67196;DHT22;54122;53.538;49.366;2022-11-23T17:39:19;3.70;99.90
67196;DHT22;54122;53.538;49.366;2022-11-23T17:41:47;3.70;99.90
67196;DHT22;54122;53.538;49.366;2022-11-23T17:44:15;3.70;99.90
67196;DHT22;54122;53.538;49.366;2022-11-23T17:46:43;3.70;99.90
67196;DHT22;54122;53.538;49.366;2022-11-23T17:49:13;3.70;99.90
67196;DHT22;54122;53.538;49.366;2022-11-23T17:51:42;3.70;99.90
67196;DHT22;54122;53.538;49.366;2022-11-23T17:54:09;3.80;99.90
67196;DHT22;54122;53.538;49.366;2022-11-23T17:56:35;3.80;99.90
67196;DHT22;54122;53.538;49.366;2022-11-23T17:59:03;3.80;99.90
67196;DHT22;54122;53.538;49.366;2022-11-23T18:01:32;3.80;99.90
67196;DHT22;54122;53.538;49.366;2022-11-23T18:04:01;3.80;99.90
67196;DHT22;54122;53.538;49.366;2022-11-23T18:06:31;3.80;99.90
67196;DHT22;54122;53.538;49.366;2022-11-23T18:08:59;3.80;99.90
67196;DHT22;54122;53.538;49.366;2022-11-23T18:11:26;3.80;99.90
67196;DHT22;54122;53.538;49.366;2022-11-23T18:13:54;3.80;99.90
67196;DHT22;54122;53.538;49.366;2022-11-23T18:16:22;3.80;99.90
67196;DHT22;54122;53.538;49.366;2022-11-23T18:18:49;3.90;99.90
67196;DHT22;54122;53.538;49.366;2022-11-23T18:21:17;3.90;99.90
67196;DHT22;54122;53.538;49.366;2022-11-23T18:23:46;3.90;99.90
67196;DHT22;54122;53.538;49.366;2022-11-23T18:28:41;3.90;99.90
67196;DHT22;54122;53.538;49.366;2022-11-23T18:31:08;3.90;99.90
67196;DHT22;54122;53.538;49.366;2022-11-23T18:33:35;3.90;99.90
67196;DHT22;54122;53.538;49.366;2022-11-23T18:36:02;3.90;99.90
67196;DHT22;54122;53.538;49.366;2022-11-23T18:38:30;3.90;99.90
67196;DHT22;54122;53.538;49.366;2022-11-23T18:40:59;3.90;99.90
67196;DHT22;54122;53.538;49.366;2022-11-23T18:43:26;3.90;99.90
67196;DHT22;54122;53.538;49.366;2022-11-23T18:45:53;3.80;99.90
67196;DHT22;54122;53.538;49.366;2022-11-23T18:48:20;3.90;99.90
67196;DHT22;54122;53.538;49.366;2022-11-23T18:50:47;3.90;99.90
67196;DHT22;54122;53.538;49.366;2022-11-23T18:53:14;3.90;99.90
67196;DHT22;54122;53.538;49.366;2022-11-23T18:55:41;3.90;99.90
67196;DHT22;54122;53.538;49.366;2022-11-23T18:58:10;3.90;99.90
67196;DHT22;54122;53.538;49.366;2022-11-23T19:00:38;3.90;99.90
67196;DHT22;54122;53.538;49.366;2022-11-23T19:03:05;3.90;99.90
67196;DHT22;54122;53.538;49.366;2022-11-23T19:05:37;3.90;99.90
67196;DHT22;54122;53.538;49.366;2022-11-23T19:08:07;3.80;99.90
67196;DHT22;54122;53.538;49.366;2022-11-23T19:10:37;3.80;99.90
67196;DHT22;54122;53.538;49.366;2022-11-23T19:13:04;3.80;99.90
67196;DHT22;54122;53.538;49.366;2022-11-23T19:15:31;3.80;99.90
67196;DHT22;54122;53.538;49.366;2022-11-23T19:17:58;3.70;99.90
67196;DHT22;54122;53.538;49.366;2022-11-23T19:20:24;3.80;99.90
67196;DHT22;54122;53.538;49.366;2022-11-23T19:22:51;3.70;99.90
67196;DHT22;54122;53.538;49.366;2022-11-23T19:25:22;3.70;99.90
67196;DHT22;54122;53.538;49.366;2022-11-23T19:27:48;3.70;99.90
67196;DHT22;54122;53.538;49.366;2022-11-23T19:30:18;3.60;99.90
67196;DHT22;54122;53.538;49.366;2022-11-23T19:32:46;3.60;99.90
67196;DHT22;54122;53.538;49.366;2022-11-23T19:35:17;3.60;99.90
67196;DHT22;54122;53.538;49.366;2022-11-23T19:37:54;3.50;99.90
67196;DHT22;54122;53.538;49.366;2022-11-23T19:40:21;3.50;99.90
67196;DHT22;54122;53.538;49.366;2022-11-23T19:42:48;3.50;99.90
67196;DHT22;54122;53.538;49.366;2022-11-23T19:45:15;3.40;99.90
67196;DHT22;54122;53.538;49.366;2022-11-23T19:47:42;3.40;99.90
67196;DHT22;54122;53.538;49.366;2022-11-23T19:50:08;3.40;99.90
67196;DHT22;54122;53.538;49.366;2022-11-23T19:52:35;3.40;99.90
67196;DHT22;54122;53.538;49.366;2022-11-23T19:55:03;3.40;99.90
67196;DHT22;54122;53.538;49.366;2022-11-23T19:57:30;3.40;99.90
67196;DHT22;54122;53.538;49.366;2022-11-23T19:59:57;3.40;99.90
67196;DHT22;54122;53.538;49.366;2022-11-23T20:02:24;3.40;99.90
67196;DHT22;54122;53.538;49.366;2022-11-23T20:04:51;3.40;99.90
67196;DHT22;54122;53.538;49.366;2022-11-23T20:07:18;3.40;99.90
67196;DHT22;54122;53.538;49.366;2022-11-23T20:09:44;3.30;99.90
67196;DHT22;54122;53.538;49.366;2022-11-23T20:12:12;3.30;99.90
67196;DHT22;54122;53.538;49.366;2022-11-23T20:14:38;3.30;99.90
67196;DHT22;54122;53.538;49.366;2022-11-23T20:17:05;3.30;99.90
67196;DHT22;54122;53.538;49.366;2022-11-23T20:19:32;3.20;99.90
67196;DHT22;54122;53.538;49.366;2022-11-23T20:21:58;3.20;99.90
67196;DHT22;54122;53.538;49.366;2022-11-23T20:24:24;3.20;99.90
67196;DHT22;54122;53.538;49.366;2022-11-23T20:26:51;3.20;99.90
67196;DHT22;54122;53.538;49.366;2022-11-23T20:29:17;3.20;99.90
67196;DHT22;54122;53.538;49.366;2022-11-23T20:31:44;3.10;99.90
67196;DHT22;54122;53.538;49.366;2022-11-23T20:34:10;3.10;99.90
67196;DHT22;54122;53.538;49.366;2022-11-23T20:36:37;3.10;99.90
67196;DHT22;54122;53.538;49.366;2022-11-23T20:39:06;3.10;99.90
67196;DHT22;54122;53.538;49.366;2022-11-23T20:41:34;3.10;99.90
67196;DHT22;54122;53.538;49.366;2022-11-23T20:44:03;3.10;99.90
67196;DHT22;54122;53.538;49.366;2022-11-23T20:46:31;3.10;99.90
67196;DHT22;54122;53.538;49.366;2022-11-23T20:48:58;3.10;99.90
67196;DHT22;54122;53.538;49.366;2022-11-23T20:51:28;3.10;99.90
67196;DHT22;54122;53.538;49.366;2022-11-23T20:53:55;3.10;99.90
67196;DHT22;54122;53.538;49.366;2022-11-23T20:56:22;3.10;99.90
67196;DHT22;54122;53.538;49.366;2022-11-23T20:58:53;3.10;99.90
67196;DHT22;54122;53.538;49.366;2022-11-23T21:01:20;3.10;99.90
67196;DHT22;54122;53.538;49.366;2022-11-23T21:03:54;3.10;99.90
67196;DHT22;54122;53.538;49.366;2022-11-23T21:06:21;3.00;99.90
67196;DHT22;54122;53.538;49.366;2022-11-23T21:08:50;3.00;99.90
67196;DHT22;54122;53.538;49.366;2022-11-23T21:11:27;3.00;99.90
67196;DHT22;54122;53.538;49.366;2022-11-23T21:14:15;3.00;99.90
67196;DHT22;54122;53.538;49.366;2022-11-23T21:19:11;3.00;99.90
67196;DHT22;54122;53.538;49.366;2022-11-23T21:21:39;3.00;99.90
67196;DHT22;54122;53.538;49.366;2022-11-23T21:24:06;3.00;99.90
67196;DHT22;54122;53.538;49.366;2022-11-23T21:26:33;3.00;99.90
67196;DHT22;54122;53.538;49.366;2022-11-23T21:28:59;3.00;99.90
67196;DHT22;54122;53.538;49.366;2022-11-23T21:31:28;3.00;99.90
67196;DHT22;54122;53.538;49.366;2022-11-23T21:33:55;3.00;99.90
67196;DHT22;54122;53.538;49.366;2022-11-23T21:36:21;3.00;99.90
67196;DHT22;54122;53.538;49.366;2022-11-23T21:38:48;3.00;99.90
67196;DHT22;54122;53.538;49.366;2022-11-23T21:41:15;3.00;99.90
67196;DHT22;54122;53.538;49.366;2022-11-23T21:43:43;3.00;99.90
67196;DHT22;54122;53.538;49.366;2022-11-23T21:46:16;3.00;99.90
67196;DHT22;54122;53.538;49.366;2022-11-23T21:48:43;3.00;99.90
67196;DHT22;54122;53.538;49.366;2022-11-23T21:51:12;2.90;99.90
67196;DHT22;54122;53.538;49.366;2022-11-23T21:53:39;3.00;99.90
67196;DHT22;54122;53.538;49.366;2022-11-23T21:56:14;3.00;99.90
67196;DHT22;54122;53.538;49.366;2022-11-23T21:58:41;3.00;99.90
67196;DHT22;54122;53.538;49.366;2022-11-23T22:01:11;3.00;99.90
67196;DHT22;54122;53.538;49.366;2022-11-23T22:03:46;2.90;99.90
67196;DHT22;54122;53.538;49.366;2022-11-23T22:06:13;3.00;99.90
67196;DHT22;54122;53.538;49.366;2022-11-23T22:08:42;2.90;99.90
67196;DHT22;54122;53.538;49.366;2022-11-23T22:11:14;3.00;99.90
67196;DHT22;54122;53.538;49.366;2022-11-23T22:13:41;3.00;99.90
67196;DHT22;54122;53.538;49.366;2022-11-23T22:16:16;3.00;99.90
67196;DHT22;54122;53.538;49.366;2022-11-23T22:18:44;3.00;99.90
67196;DHT22;54122;53.538;49.366;2022-11-23T22:21:11;2.90;99.90
67196;DHT22;54122;53.538;49.366;2022-11-23T22:23:38;2.90;99.90
67196;DHT22;54122;53.538;49.366;2022-11-23T22:26:08;2.90;99.90
67196;DHT22;54122;53.538;49.366;2022-11-23T22:28:37;2.90;99.90
67196;DHT22;54122;53.538;49.366;2022-11-23T22:31:06;2.90;99.90
67196;DHT22;54122;53.538;49.366;2022-11-23T22:33:33;2.90;99.90
67196;DHT22;54122;53.538;49.366;2022-11-23T22:36:00;2.90;99.90
67196;DHT22;54122;53.538;49.366;2022-11-23T22:38:29;2.90;99.90
67196;DHT22;54122;53.538;49.366;2022-11-23T22:41:01;3.00;99.90
67196;DHT22;54122;53.538;49.366;2022-11-23T22:43:28;2.90;99.90
67196;DHT22;54122;53.538;49.366;2022-11-23T22:46:00;3.00;99.90
67196;DHT22;54122;53.538;49.366;2022-11-23T22:48:27;2.90;99.90
67196;DHT22;54122;53.538;49.366;2022-11-23T22:50:58;2.90;99.90
67196;DHT22;54122;53.538;49.366;2022-11-23T22:53:25;2.90;99.90
67196;DHT22;54122;53.538;49.366;2022-11-23T22:55:52;2.90;99.90
67196;DHT22;54122;53.538;49.366;2022-11-23T22:58:19;2.90;99.90
67196;DHT22;54122;53.538;49.366;2022-11-23T23:00:46;2.90;99.90
67196;DHT22;54122;53.538;49.366;2022-11-23T23:03:12;2.90;99.90
67196;DHT22;54122;53.538;49.366;2022-11-23T23:05:39;2.90;99.90
67196;DHT22;54122;53.538;49.366;2022-11-23T23:08:05;2.90;99.90
67196;DHT22;54122;53.538;49.366;2022-11-23T23:10:33;2.80;99.90
67196;DHT22;54122;53.538;49.366;2022-11-23T23:13:00;2.90;99.90
67196;DHT22;54122;53.538;49.366;2022-11-23T23:15:26;2.90;99.90
67196;DHT22;54122;53.538;49.366;2022-11-23T23:17:52;2.90;99.90
67196;DHT22;54122;53.538;49.366;2022-11-23T23:20:19;2.90;99.90
67196;DHT22;54122;53.538;49.366;2022-11-23T23:22:46;2.90;99.90
67196;DHT22;54122;53.538;49.366;2022-11-23T23:25:13;2.90;99.90
67196;DHT22;54122;53.538;49.366;2022-11-23T23:27:39;2.90;99.90
67196;DHT22;54122;53.538;49.366;2022-11-23T23:30:06;2.90;99.90
67196;DHT22;54122;53.538;49.366;2022-11-23T23:32:33;2.90;99.90
67196;DHT22;54122;53.538;49.366;2022-11-23T23:34:59;2.90;99.90
67196;DHT22;54122;53.538;49.366;2022-11-23T23:37:25;3.00;99.90
67196;DHT22;54122;53.538;49.366;2022-11-23T23:39:52;3.00;99.90
67196;DHT22;54122;53.538;49.366;2022-11-23T23:42:18;3.00;99.90
67196;DHT22;54122;53.538;49.366;2022-11-23T23:44:45;3.00;99.90
67196;DHT22;54122;53.538;49.366;2022-11-23T23:47:12;3.00;99.90
67196;DHT22;54122;53.538;49.366;2022-11-23T23:49:38;3.00;99.90
67196;DHT22;54122;53.538;49.366;2022-11-23T23:52:04;3.00;99.90
67196;DHT22;54122;53.538;49.366;2022-11-23T23:54:31;2.90;99.90
67196;DHT22;54122;53.538;49.366;2022-11-23T23:56:57;2.90;99.90
67196;DHT22;54122;53.538;49.366;2022-11-23T23:59:24;2.90;99.90
